createdAt,value
2023-04-23T00:01:06.359Z,12.17
2023-04-23T00:03:36.193Z,12.73
2023-04-23T00:06:06.602Z,12.37
2023-04-23T00:08:35.112Z,11.83
2023-04-23T00:11:04.915Z,12.37
2023-04-23T00:13:33.322Z,11.40
2023-04-23T00:16:01.881Z,11.60
2023-04-23T00:18:30.533Z,11.87
2023-04-23T00:20:58.670Z,10.90
2023-04-23T00:23:26.853Z,9.67
2023-04-23T00:25:55.038Z,10.67
2023-04-23T00:28:24.588Z,9.83
2023-04-23T00:30:52.789Z,10.43
2023-04-23T00:33:21.269Z,9.90
2023-04-23T00:35:49.564Z,8.93
2023-04-23T00:38:17.749Z,8.63
2023-04-23T00:40:45.900Z,7.83
2023-04-23T00:43:15.369Z,8.47
2023-04-23T00:45:45.384Z,6.73
2023-04-23T00:48:13.795Z,7.90
2023-04-23T00:50:43.237Z,6.93
2023-04-23T00:53:11.445Z,6.67
2023-04-23T00:55:39.791Z,7.23
2023-04-23T00:58:08.672Z,6.57
2023-04-23T01:00:38.130Z,6.20
2023-04-23T01:03:07.750Z,6.57
2023-04-23T01:05:36.010Z,6.40
2023-04-23T01:08:04.241Z,5.80
2023-04-23T01:10:33.522Z,6.47
2023-04-23T01:13:01.762Z,5.80
2023-04-23T01:15:29.925Z,5.60
2023-04-23T01:17:58.417Z,5.67
2023-04-23T01:20:28.047Z,5.70
2023-04-23T01:22:57.610Z,6.17
2023-04-23T01:25:25.810Z,5.63
2023-04-23T01:27:54.046Z,5.77
2023-04-23T01:30:22.297Z,5.47
2023-04-23T01:32:50.917Z,5.53
2023-04-23T01:35:19.292Z,6.00
2023-04-23T01:37:48.262Z,5.63
2023-04-23T01:40:17.846Z,5.73
2023-04-23T01:42:46.052Z,6.03
2023-04-23T01:45:14.350Z,5.93
2023-04-23T01:47:42.779Z,5.90
2023-04-23T01:50:11.266Z,5.40
2023-04-23T01:52:40.326Z,5.87
2023-04-23T01:55:08.685Z,6.27
2023-04-23T01:57:38.192Z,6.30
2023-04-23T02:00:08.989Z,6.50
2023-04-23T02:02:37.411Z,6.53
2023-04-23T02:05:06.737Z,5.83
2023-04-23T02:07:35.206Z,5.87
2023-04-23T02:10:04.083Z,6.93
2023-04-23T02:12:32.290Z,6.83
2023-04-23T02:15:01.880Z,7.10
2023-04-23T02:17:31.003Z,6.77
2023-04-23T02:19:59.253Z,7.43
2023-04-23T02:22:28.248Z,7.03
2023-04-23T02:24:56.703Z,7.13
2023-04-23T02:27:24.911Z,7.40
2023-04-23T02:29:53.439Z,7.23
2023-04-23T02:32:23.189Z,7.50
2023-04-23T02:34:51.397Z,7.47
2023-04-23T02:37:19.653Z,7.03
2023-04-23T02:39:47.970Z,7.30
2023-04-23T02:42:16.130Z,7.50
2023-04-23T02:44:44.280Z,7.17
2023-04-23T02:47:12.735Z,7.13
2023-04-23T02:49:42.361Z,6.80
2023-04-23T02:52:10.602Z,7.10
2023-04-23T02:54:38.956Z,6.90
2023-04-23T02:57:07.701Z,6.77
2023-04-23T02:59:36.042Z,7.10
2023-04-23T03:02:04.547Z,6.87
2023-04-23T03:04:33.180Z,6.90
2023-04-23T03:07:02.706Z,7.03
2023-04-23T03:09:30.858Z,6.93
2023-04-23T03:11:59.073Z,6.63
2023-04-23T03:14:27.310Z,6.47
2023-04-23T03:16:55.568Z,6.60
2023-04-23T03:19:24.089Z,6.47
2023-04-23T03:21:52.235Z,6.37
2023-04-23T03:24:21.921Z,5.93
2023-04-23T03:26:50.089Z,6.70
2023-04-23T03:29:18.288Z,5.80
2023-04-23T03:31:46.494Z,6.10
2023-04-23T03:34:14.673Z,5.73
2023-04-23T03:36:44.655Z,6.17
2023-04-23T03:39:12.809Z,5.83
2023-04-23T03:41:42.328Z,5.27
2023-04-23T03:44:10.475Z,5.80
2023-04-23T03:46:38.795Z,6.07
2023-04-23T03:49:07.022Z,5.73
2023-04-23T03:51:35.177Z,5.10
2023-04-23T03:54:03.363Z,6.13
2023-04-23T03:56:31.520Z,5.30
2023-04-23T03:59:01.129Z,5.57
2023-04-23T04:01:29.296Z,5.77
2023-04-23T04:03:57.665Z,6.37
2023-04-23T04:06:26.298Z,5.60
2023-04-23T04:08:54.466Z,5.43
2023-04-23T04:11:22.618Z,5.07
2023-04-23T04:13:50.773Z,5.50
2023-04-23T04:16:20.332Z,5.60
2023-04-23T04:18:48.518Z,5.37
2023-04-23T04:21:17.304Z,5.43
2023-04-23T04:23:45.544Z,5.33
2023-04-23T04:26:15.122Z,5.17
2023-04-23T04:28:45.394Z,5.03
2023-04-23T04:31:14.366Z,5.70
2023-04-23T04:33:46.284Z,5.20
2023-04-23T04:36:14.584Z,5.17
2023-04-23T04:38:43.853Z,5.47
2023-04-23T04:41:13.201Z,4.93
2023-04-23T04:43:43.605Z,5.33
2023-04-23T04:46:12.099Z,5.00
2023-04-23T04:48:40.359Z,4.97
2023-04-23T04:51:09.845Z,5.30
2023-04-23T04:53:38.005Z,4.60
2023-04-23T04:56:06.418Z,4.70
2023-04-23T04:58:34.582Z,4.80
2023-04-23T05:01:02.986Z,4.63
2023-04-23T05:03:31.432Z,4.30
2023-04-23T05:05:59.759Z,4.70
2023-04-23T05:08:29.253Z,5.10
2023-04-23T05:10:57.568Z,4.80
2023-04-23T05:13:25.727Z,4.93
2023-04-23T05:15:53.885Z,4.60
2023-04-23T05:18:22.254Z,4.27
2023-04-23T05:20:50.850Z,4.17
2023-04-23T05:23:19.270Z,3.90
2023-04-23T05:25:50.192Z,4.50
2023-04-23T05:28:18.880Z,4.60
2023-04-23T05:30:47.094Z,3.87
2023-04-23T05:33:16.045Z,4.27
2023-04-23T05:35:44.199Z,4.30
2023-04-23T05:38:12.418Z,3.97
2023-04-23T05:40:40.834Z,4.33
2023-04-23T05:43:10.361Z,3.70
2023-04-23T05:45:38.546Z,3.77
2023-04-23T05:48:06.807Z,3.80
2023-04-23T05:50:34.977Z,4.10
2023-04-23T05:53:03.152Z,4.00
2023-04-23T05:55:31.357Z,4.20
2023-04-23T05:57:59.730Z,3.80
2023-04-23T06:00:29.476Z,3.93
2023-04-23T06:02:57.859Z,3.73
2023-04-23T06:05:26.267Z,4.00
2023-04-23T06:07:54.987Z,3.90
2023-04-23T06:10:23.268Z,3.77
2023-04-23T06:12:51.459Z,4.03
2023-04-23T06:15:19.637Z,3.50
2023-04-23T06:17:49.171Z,3.60
2023-04-23T06:20:17.442Z,3.50
2023-04-23T06:22:45.722Z,3.00
2023-04-23T06:25:13.881Z,3.27
2023-04-23T06:27:42.055Z,3.30
2023-04-23T06:30:10.710Z,3.40
2023-04-23T06:32:38.946Z,3.03
2023-04-23T06:35:10.422Z,2.90
2023-04-23T06:37:41.561Z,3.00
2023-04-23T06:40:10.079Z,2.80
2023-04-23T06:42:38.264Z,2.97
2023-04-23T06:45:06.948Z,2.70
2023-04-23T06:47:35.293Z,3.00
2023-04-23T06:50:03.483Z,2.60
2023-04-23T06:52:33.091Z,2.40
2023-04-23T06:55:01.340Z,2.50
2023-04-23T06:57:29.897Z,2.60
2023-04-23T06:59:58.057Z,2.53
2023-04-23T07:02:26.399Z,2.60
2023-04-23T07:04:54.787Z,2.40
2023-04-23T07:07:23.081Z,2.17
2023-04-23T07:09:52.633Z,2.47
2023-04-23T07:12:20.942Z,2.15
2023-04-23T07:14:49.153Z,2.33
2023-04-23T07:17:17.363Z,2.58
2023-04-23T07:19:45.525Z,1.92
2023-04-23T07:22:13.710Z,2.30
2023-04-23T07:24:42.299Z,2.10
2023-04-23T07:27:12.111Z,2.05
2023-04-23T07:29:40.472Z,2.15
2023-04-23T07:32:10.517Z,2.10
2023-04-23T07:34:38.732Z,2.20
2023-04-23T07:37:06.930Z,1.98
2023-04-23T07:39:35.127Z,2.05
2023-04-23T07:42:03.624Z,2.00
2023-04-23T07:44:33.127Z,1.73
2023-04-23T07:47:01.438Z,1.88
2023-04-23T07:49:29.582Z,1.80
2023-04-23T07:51:57.753Z,1.58
2023-04-23T07:54:25.936Z,2.03
2023-04-23T07:56:54.171Z,1.58
2023-04-23T07:59:22.758Z,1.95
2023-04-23T08:01:52.294Z,1.50
2023-04-23T08:04:20.735Z,1.23
2023-04-23T08:06:49.263Z,2.00
2023-04-23T08:09:17.446Z,1.90
2023-04-23T08:11:46.098Z,1.67
2023-04-23T08:14:14.290Z,1.83
2023-04-23T08:16:42.443Z,1.80
2023-04-23T08:19:12.304Z,1.88
2023-04-23T08:21:40.482Z,1.70
2023-04-23T08:24:08.794Z,1.65
2023-04-23T08:26:37.569Z,1.55
2023-04-23T08:29:06.027Z,1.70
2023-04-23T08:31:34.577Z,1.48
2023-04-23T08:34:02.812Z,2.17
2023-04-23T08:36:33.231Z,1.80
2023-04-23T08:39:03.481Z,1.33
2023-04-23T08:41:40.338Z,1.50
2023-04-23T08:44:13.840Z,1.67
2023-04-23T08:46:43.910Z,1.50
2023-04-23T08:49:15.440Z,1.40
2023-04-23T08:51:48.370Z,1.67
2023-04-23T08:54:17.488Z,1.53
2023-04-23T08:56:45.949Z,1.30
2023-04-23T08:59:14.587Z,1.50
2023-04-23T09:01:43.629Z,1.70
2023-04-23T09:04:16.805Z,1.47
2023-04-23T09:06:46.363Z,1.50
2023-04-23T09:09:17.376Z,1.40
2023-04-23T09:11:46.045Z,1.50
2023-04-23T09:14:15.168Z,1.37
2023-04-23T09:16:44.352Z,1.70
2023-04-23T09:19:12.986Z,1.20
2023-04-23T09:21:41.875Z,1.20
2023-04-23T09:24:12.762Z,1.30
2023-04-23T09:26:46.677Z,1.30
2023-04-23T09:29:17.481Z,1.40
2023-04-23T09:31:47.550Z,1.40
2023-04-23T09:34:18.075Z,1.30
2023-04-23T09:36:46.432Z,1.27
2023-04-23T09:39:16.768Z,1.60
2023-04-23T09:41:45.735Z,1.30
2023-04-23T09:44:14.150Z,1.20
2023-04-23T09:46:43.112Z,1.40
2023-04-23T09:49:11.910Z,1.37
2023-04-23T09:51:40.672Z,1.40
2023-04-23T09:54:13.220Z,1.47
2023-04-23T09:56:43.086Z,1.47
2023-04-23T09:59:45.937Z,1.63
2023-04-23T10:02:32.298Z,1.50
2023-04-23T10:05:14.161Z,1.50
2023-04-23T10:07:50.088Z,1.30
2023-04-23T10:10:18.487Z,1.10
2023-04-23T10:12:54.877Z,1.30
2023-04-23T10:15:24.896Z,1.53
2023-04-23T10:17:53.156Z,1.30
2023-04-23T10:20:22.683Z,1.27
2023-04-23T10:22:51.455Z,1.40
2023-04-23T10:25:20.453Z,1.40
2023-04-23T10:27:53.976Z,1.30
2023-04-23T10:30:23.156Z,1.43
2023-04-23T10:32:52.299Z,1.50
2023-04-23T10:35:20.501Z,1.40
2023-04-23T10:37:49.434Z,1.40
2023-04-23T10:40:21.495Z,1.40
2023-04-23T10:42:51.093Z,1.50
2023-04-23T10:47:51.427Z,1.40
2023-04-23T10:50:20.548Z,1.57
2023-04-23T10:52:51.590Z,1.47
2023-04-23T10:55:20.795Z,1.43
2023-04-23T10:58:03.345Z,1.53
2023-04-23T11:00:32.823Z,1.60
2023-04-23T11:03:01.150Z,1.33
2023-04-23T11:05:29.450Z,1.40
2023-04-23T11:08:18.966Z,1.57
2023-04-23T11:10:58.511Z,1.33
2023-04-23T11:13:28.717Z,1.27
2023-04-23T11:16:15.902Z,1.50
2023-04-23T11:18:56.893Z,1.30
2023-04-23T11:21:41.034Z,1.40
2023-04-23T11:24:09.267Z,1.23
2023-04-23T11:26:38.050Z,0.90
2023-04-23T11:29:08.404Z,1.10
2023-04-23T11:31:39.305Z,1.20
2023-04-23T11:34:11.960Z,1.10
2023-04-23T11:36:40.740Z,1.20
2023-04-23T11:39:09.757Z,1.20
2023-04-23T11:41:38.097Z,1.47
2023-04-23T11:44:08.445Z,1.40
2023-04-23T11:46:37.992Z,0.80
2023-04-23T11:49:06.275Z,1.00
2023-04-23T11:51:34.441Z,1.10
2023-04-23T11:54:05.747Z,1.10
2023-04-23T11:56:35.330Z,1.10
2023-04-23T11:59:04.191Z,1.30
2023-04-23T12:01:43.754Z,1.10
2023-04-23T12:04:13.212Z,1.20
2023-04-23T12:06:43.342Z,1.30
2023-04-23T12:09:12.763Z,1.33
2023-04-23T12:11:41.601Z,1.00
2023-04-23T12:14:09.924Z,1.33
2023-04-23T12:16:39.142Z,1.03
2023-04-23T12:19:10.773Z,1.07
2023-04-23T12:21:54.569Z,1.00
2023-04-23T12:24:23.779Z,1.27
2023-04-23T12:26:54.391Z,1.33
2023-04-23T12:29:23.613Z,1.13
2023-04-23T12:31:52.185Z,0.83
2023-04-23T12:34:22.519Z,0.93
2023-04-23T12:36:51.324Z,1.23
2023-04-23T12:39:23.247Z,1.07
2023-04-23T12:41:52.822Z,1.20
2023-04-23T12:44:21.614Z,1.40
2023-04-23T12:46:57.709Z,1.20
2023-04-23T12:49:28.024Z,1.00
2023-04-23T12:52:00.799Z,1.20
2023-04-23T12:54:29.569Z,1.00
2023-04-23T12:56:57.828Z,1.20
2023-04-23T12:59:25.999Z,1.17
2023-04-23T13:01:54.191Z,1.10
2023-04-23T13:04:22.437Z,0.83
2023-04-23T13:06:52.824Z,1.10
2023-04-23T13:09:21.810Z,1.20
2023-04-23T13:11:50.546Z,1.20
2023-04-23T13:14:19.081Z,1.37
2023-04-23T13:16:47.312Z,1.20
2023-04-23T13:19:17.046Z,1.20
2023-04-23T13:21:45.655Z,1.17
2023-04-23T13:24:15.190Z,1.17
2023-04-23T13:26:43.502Z,1.20
2023-04-23T13:29:11.768Z,1.10
2023-04-23T13:31:40.403Z,1.20
2023-04-23T13:34:08.613Z,1.20
2023-04-23T13:36:37.163Z,1.30
2023-04-23T13:39:07.186Z,1.20
2023-04-23T13:41:36.779Z,1.43
2023-04-23T13:44:04.968Z,1.70
2023-04-23T13:46:33.330Z,1.33
2023-04-23T13:49:02.067Z,1.20
2023-04-23T13:51:35.148Z,1.40
2023-04-23T13:54:04.412Z,1.30
2023-04-23T13:56:33.107Z,1.30
2023-04-23T14:01:34.852Z,1.37
2023-04-23T14:04:04.072Z,1.30
2023-04-23T14:06:32.168Z,1.13
2023-04-23T14:09:00.095Z,1.30
2023-04-23T14:11:28.503Z,1.20
2023-04-23T14:13:56.417Z,1.40
2023-04-23T14:16:26.019Z,1.30
2023-04-23T14:18:54.288Z,1.10
2023-04-23T14:21:22.499Z,1.90
2023-04-23T14:23:57.432Z,1.10
2023-04-23T14:26:47.449Z,1.20
2023-04-23T14:29:21.089Z,1.30
2023-04-23T14:31:50.654Z,1.53
2023-04-23T14:34:18.847Z,1.53
2023-04-23T14:36:49.248Z,1.40
2023-04-23T14:39:17.678Z,1.60
2023-04-23T14:41:45.910Z,1.47
2023-04-23T14:44:14.084Z,1.23
2023-04-23T14:46:42.260Z,1.77
2023-04-23T14:49:12.327Z,1.60
2023-04-23T14:51:41.193Z,1.80
2023-04-23T14:54:09.430Z,1.50
2023-04-23T14:56:37.914Z,1.90
2023-04-23T14:59:06.241Z,1.60
2023-04-23T15:01:34.466Z,1.83
2023-04-23T15:04:02.843Z,1.50
2023-04-23T15:06:32.484Z,1.80
2023-04-23T15:09:00.722Z,1.60
2023-04-23T15:11:29.020Z,1.60
2023-04-23T15:13:58.734Z,1.50
2023-04-23T15:16:46.673Z,1.70
2023-04-23T15:19:18.285Z,1.50
2023-04-23T15:21:48.348Z,1.50
2023-04-23T15:24:16.673Z,1.60
2023-04-23T15:26:45.746Z,1.90
2023-04-23T15:29:14.402Z,1.80
2023-04-23T15:31:42.811Z,1.90
2023-04-23T15:34:12.044Z,1.50
2023-04-23T15:36:40.424Z,1.37
2023-04-23T15:39:10.124Z,1.40
2023-04-23T15:41:40.581Z,1.30
2023-04-23T15:44:11.808Z,1.30
2023-04-23T15:46:40.196Z,1.30
2023-04-23T15:49:08.371Z,1.50
2023-04-23T15:51:37.341Z,1.10
2023-04-23T15:54:08.430Z,1.10
2023-04-23T15:56:38.440Z,1.20
2023-04-23T15:59:07.624Z,1.20
2023-04-23T16:01:36.105Z,1.10
2023-04-23T16:06:35.537Z,1.80
2023-04-23T16:09:06.689Z,1.80
2023-04-23T16:11:35.588Z,1.40
2023-04-23T16:14:05.257Z,1.30
2023-04-23T16:16:33.492Z,1.40
2023-04-23T16:19:02.559Z,1.30
2023-04-23T16:21:31.182Z,1.47
2023-04-23T16:23:59.397Z,1.07
2023-04-23T16:26:27.679Z,0.97
2023-04-23T16:29:05.576Z,1.20
2023-04-23T16:31:45.462Z,1.00
2023-04-23T16:34:13.657Z,1.07
2023-04-23T16:36:41.908Z,0.90
2023-04-23T16:39:11.065Z,1.00
2023-04-23T16:41:39.350Z,1.00
2023-04-23T16:44:07.735Z,0.70
2023-04-23T16:46:36.034Z,0.87
2023-04-23T16:49:05.643Z,0.80
2023-04-23T16:51:33.867Z,0.77
2023-04-23T16:54:02.067Z,0.90
2023-04-23T16:56:30.760Z,0.90
2023-04-23T16:58:59.293Z,0.90
2023-04-23T17:01:27.464Z,0.70
2023-04-23T17:03:55.937Z,0.80
2023-04-23T17:06:28.358Z,0.77
2023-04-23T17:08:57.661Z,1.00
2023-04-23T17:11:26.050Z,1.00
2023-04-23T17:13:54.502Z,1.00
2023-04-23T17:16:22.804Z,1.10
2023-04-23T17:18:51.028Z,0.80
2023-04-23T17:21:19.303Z,0.90
2023-04-23T17:23:48.861Z,1.07
2023-04-23T17:26:17.026Z,0.90
2023-04-23T17:28:46.039Z,1.00
2023-04-23T17:31:14.246Z,0.90
2023-04-23T17:33:44.478Z,0.90
2023-04-23T17:36:12.663Z,0.80
2023-04-23T17:38:41.250Z,1.00
2023-04-23T17:41:11.176Z,1.10
2023-04-23T17:43:39.359Z,1.07
2023-04-23T17:46:07.896Z,1.17
2023-04-23T17:48:36.104Z,1.00
2023-04-23T17:51:04.330Z,1.10
2023-04-23T17:53:32.481Z,1.00
2023-04-23T17:56:02.929Z,1.20
2023-04-23T17:58:32.801Z,1.27
2023-04-23T18:01:01.037Z,1.10
2023-04-23T18:03:30.161Z,1.10
2023-04-23T18:05:58.628Z,0.80
2023-04-23T18:08:27.075Z,0.93
2023-04-23T18:10:55.388Z,0.90
2023-04-23T18:13:23.589Z,0.90
2023-04-23T18:15:53.147Z,1.00
2023-04-23T18:18:22.307Z,1.00
2023-04-23T18:20:51.880Z,0.87
2023-04-23T18:23:22.004Z,0.77
2023-04-23T18:25:50.268Z,0.80
2023-04-23T18:28:18.471Z,0.80
2023-04-23T18:30:46.888Z,0.60
2023-04-23T18:33:26.588Z,0.60
2023-04-23T18:35:59.152Z,0.57
2023-04-23T18:38:31.700Z,0.53
2023-04-23T18:41:02.708Z,0.63
2023-04-23T18:43:31.799Z,0.70
2023-04-23T18:46:00.248Z,0.50
2023-04-23T18:48:46.725Z,0.50
2023-04-23T18:51:22.911Z,0.70
2023-04-23T18:53:51.202Z,0.70
2023-04-23T18:56:19.523Z,0.90
2023-04-23T18:58:47.752Z,0.70
2023-04-23T19:01:16.052Z,0.70
2023-04-23T19:03:45.757Z,0.77
2023-04-23T19:06:14.195Z,0.90
2023-04-23T19:08:42.488Z,0.60
2023-04-23T19:11:10.830Z,0.60
2023-04-23T19:13:39.034Z,0.80
2023-04-23T19:16:07.263Z,0.77
2023-04-23T19:18:35.467Z,0.80
2023-04-23T19:21:05.484Z,0.80
2023-04-23T19:23:33.677Z,0.67
2023-04-23T19:26:02.969Z,1.00
2023-04-23T19:28:31.154Z,0.80
2023-04-23T19:30:59.483Z,0.60
2023-04-23T19:33:27.708Z,0.70
2023-04-23T19:35:56.220Z,0.63
2023-04-23T19:38:25.783Z,0.80
2023-04-23T19:40:53.962Z,0.60
2023-04-23T19:43:22.255Z,0.40
2023-04-23T19:45:50.384Z,0.70
2023-04-23T19:48:18.620Z,0.70
2023-04-23T19:50:47.763Z,0.90
2023-04-23T19:53:16.024Z,0.70
2023-04-23T19:55:45.526Z,0.70
2023-04-23T19:58:15.848Z,1.10
2023-04-23T20:00:44.224Z,0.63
2023-04-23T20:03:12.577Z,0.73
2023-04-23T20:05:42.192Z,0.77
2023-04-23T20:08:15.298Z,0.70
2023-04-23T20:10:43.793Z,0.83
2023-04-23T20:13:13.329Z,0.80
2023-04-23T20:15:41.704Z,0.80
2023-04-23T20:18:09.930Z,0.90
2023-04-23T20:20:39.866Z,0.90
2023-04-23T20:23:08.086Z,0.90
2023-04-23T20:25:37.620Z,0.87
2023-04-23T20:28:06.424Z,0.70
2023-04-23T20:30:36.968Z,0.67
2023-04-23T20:33:05.246Z,0.83
2023-04-23T20:35:33.684Z,0.90
2023-04-23T20:38:01.881Z,0.90
2023-04-23T20:40:34.237Z,0.83
2023-04-23T20:43:04.492Z,0.87
2023-04-23T20:45:34.112Z,0.57
2023-04-23T20:48:03.740Z,0.90
2023-04-23T20:50:32.071Z,0.83
2023-04-23T20:53:00.297Z,0.60
2023-04-23T20:55:28.448Z,0.83
2023-04-23T20:57:56.617Z,1.00
2023-04-23T21:00:25.056Z,0.80
2023-04-23T21:02:53.609Z,1.00
2023-04-23T21:05:23.348Z,0.63
2023-04-23T21:07:51.570Z,0.70
2023-04-23T21:10:19.808Z,0.80
2023-04-23T21:12:48.060Z,0.73
2023-04-23T21:15:17.097Z,0.90
2023-04-23T21:17:45.349Z,0.87
2023-04-23T21:20:13.557Z,0.90
2023-04-23T21:22:43.114Z,0.80
2023-04-23T21:25:11.593Z,0.80
2023-04-23T21:27:39.879Z,0.83
2023-04-23T21:30:12.326Z,0.90
2023-04-23T21:32:40.525Z,0.80
2023-04-23T21:35:09.071Z,1.00
2023-04-23T21:37:37.927Z,0.90
2023-04-23T21:40:10.284Z,0.87
2023-04-23T21:42:38.489Z,1.20
2023-04-23T21:45:07.374Z,1.10
2023-04-23T21:47:35.575Z,1.30
2023-04-23T21:50:05.143Z,1.00
2023-04-23T21:52:33.756Z,0.80
2023-04-23T21:55:02.114Z,1.00
2023-04-23T21:57:31.611Z,0.97
2023-04-23T21:59:59.814Z,1.10
2023-04-23T22:02:28.181Z,0.80
2023-04-23T22:04:56.462Z,1.10
2023-04-23T22:07:26.806Z,1.00
2023-04-23T22:09:57.083Z,1.20
2023-04-23T22:12:25.678Z,1.13
2023-04-23T22:14:55.203Z,1.10
2023-04-23T22:17:26.072Z,1.13
2023-04-23T22:19:54.375Z,1.17
2023-04-23T22:22:22.532Z,1.20
2023-04-23T22:24:50.689Z,1.20
2023-04-23T22:27:18.850Z,1.30
2023-04-23T22:29:47.041Z,1.10
2023-04-23T22:32:16.582Z,1.20
2023-04-23T22:34:44.841Z,1.30
2023-04-23T22:37:13.106Z,1.60
2023-04-23T22:39:41.593Z,1.60
2023-04-23T22:42:09.993Z,1.40
2023-04-23T22:44:38.729Z,1.53
2023-04-23T22:47:07.214Z,1.80
2023-04-23T22:49:36.732Z,1.40
2023-04-23T22:52:05.005Z,2.03
2023-04-23T22:54:33.152Z,1.40
2023-04-23T22:57:02.043Z,1.30
2023-04-23T22:59:30.286Z,1.50
2023-04-23T23:01:58.529Z,1.53
2023-04-23T23:04:26.894Z,1.47
2023-04-23T23:06:56.455Z,1.60
2023-04-23T23:09:24.626Z,1.37
2023-04-23T23:11:52.791Z,1.50
2023-04-23T23:14:21.371Z,1.60
2023-04-23T23:16:49.510Z,1.60
2023-04-23T23:19:17.709Z,1.70
2023-04-23T23:21:45.897Z,1.30
2023-04-23T23:24:15.439Z,1.50
2023-04-23T23:26:43.597Z,1.47
2023-04-23T23:29:11.754Z,1.80
2023-04-23T23:31:39.991Z,1.70
2023-04-23T23:34:08.671Z,2.00
2023-04-23T23:36:36.860Z,1.60
2023-04-23T23:39:06.480Z,1.70
2023-04-23T23:41:36.079Z,1.70
2023-04-23T23:44:04.206Z,1.63
2023-04-23T23:46:32.421Z,1.60
2023-04-23T23:49:00.648Z,1.40
2023-04-23T23:51:28.977Z,1.90
2023-04-23T23:53:57.110Z,1.80
2023-04-23T23:56:25.279Z,1.57
2023-04-23T23:58:54.771Z,1.67
